M I D A S
Marine Information and Data Acquisition System
Tripno 307 of the Zeeleeuw from 2002-08-21 06:54:07 to 2002-08-21 15:43:45
Back to CruiseResearch ActivitiesStationsMapUnderway DataData graphs

EquipmentUnitsComment
TimeDGPSUTC
LatitudeDGPSDM.mWGS84
LongitudeDGPSDM.mWGS84
TemperatureSBE03/SBE38deg celciusITS90
ConductivitySBE21S/mITS90
SalinitySBE21 Practical Salinity Units
ChlorophylAChelsea fluorimeterg/lCalibrated in Aceton
Missing or incorrect values are displayed as -999
Sea surface data collected by the RV Zeeleeuw from 2002-08-21 06:54:07 to 2002-08-21 15:43:45
Time Latitude Longitude Temperature Conductivity Salinity ChlorophylA
2002-08-21 06:55:12 51°13.67 2°55.925 22.587168 1.878087 11.674868  
2002-08-21 06:56:12 51°13.681 2°55.841 22.143177 2.770294 17.971851  
2002-08-21 06:57:11 51°13.68 2°55.744 22.142784 2.880665 18.833857  
2002-08-21 06:58:11 51°13.687 2°55.736 22.143451 2.554367 16.511395  
2002-08-21 06:59:11 51°13.74 2°55.706 22.16877 2.228737 14.218684  
2002-08-21 07:00:11 51°13.831 2°55.641 22.280261 1.91 12.001278  
2002-08-21 07:01:11 51°13.938 2°55.572 22.252708 1.864129 11.666942  
2002-08-21 07:02:11 51°14.048 2°55.503 22.019005 2.469939 15.907858  
2002-08-21 07:03:11 51°14.151 2°55.412 21.998276 2.751571 17.962553  
2002-08-21 07:04:11 51°14.246 2°55.285 21.937391 2.775241 18.154695  
2002-08-21 07:05:12 51°14.322 2°55.138 21.815898 3.065479 20.283844  
2002-08-21 07:06:11 51°14.399 2°54.987 21.68515 3.366519 22.547269  
2002-08-21 07:07:12 51°14.51 2°54.862 21.486596 3.691745 25.063749  
2002-08-21 07:08:11 51°14.627 2°54.759 21.915968 4.196288 29.001444  
2002-08-21 07:09:11 51°14.728 2°54.666 21.793334 4.402381 30.645761  
2002-08-21 07:10:11 51°14.868 2°54.616 21.711698 4.440568 30.957625  
2002-08-21 07:11:11 51°15.057 2°54.586 21.793887 4.447742 31.026901  
2002-08-21 07:12:11 51°15.248 2°54.538 21.730655 4.450063 31.054934  
2002-08-21 07:13:11 51°15.443 2°54.474 21.688904 4.44848 31.038123  
2002-08-21 07:14:11 51°15.649 2°54.407 21.499393 4.467364 31.20335  
2002-08-21 07:15:12 51°15.861 2°54.334 22.004531 4.498908 31.500179  
2002-08-21 07:16:11 51°16.042 2°54.284 21.541414 4.506188 31.560706  
2002-08-21 07:17:11 51°16.124 2°54.297 21.744198 4.491312 31.414502  
2002-08-21 07:18:11 51°16.154 2°54.318 21.612843 4.484876 31.362692  
2002-08-21 07:19:11 51°16.192 2°54.335 21.838928 4.482872 31.347027  
2002-08-21 07:20:12 51°16.229 2°54.336 21.738473 4.480762 31.333557  
2002-08-21 07:21:12 51°16.235 2°54.334 21.898597 4.480446 31.332089  
2002-08-21 07:22:11 51°16.224 2°54.327 21.860098 4.480657 31.337259  
2002-08-21 07:23:11 51°16.208 2°54.321 21.668552 4.480235 31.336475  
2002-08-21 07:24:11 51°16.194 2°54.323 21.6529 4.480762 31.334563  
2002-08-21 07:25:11 51°16.185 2°54.32 21.650133 4.480762 31.328529  
2002-08-21 07:26:11 51°16.173 2°54.314 21.584597 4.479496 31.320146  
2002-08-21 07:27:11 51°16.162 2°54.306 21.689338 4.480024 31.322257  
2002-08-21 07:28:11 51°16.151 2°54.296 21.690326 4.479496 31.314619  
2002-08-21 07:29:11 51°16.146 2°54.284 21.629098 4.479707 31.313253  
2002-08-21 07:30:12 51°16.144 2°54.265 21.624946 4.479496 31.310099  
2002-08-21 07:31:11 51°16.147 2°54.253 21.88201 4.478968 31.309494  
2002-08-21 07:32:11 51°16.151 2°54.252 21.817988 4.478863 31.307163  
2002-08-21 07:33:12 51°16.165 2°54.259 21.906988 4.477386 31.297133  
2002-08-21 07:34:11 51°16.18 2°54.262 21.614228 4.477597 31.304807  
2002-08-21 07:35:12 51°16.182 2°54.269 21.739855 4.47707 31.301691  
2002-08-21 07:36:11 51°16.168 2°54.271 21.677049 4.453123 31.115678  
2002-08-21 07:37:12 51°16.156 2°54.272 21.841136 4.476015 31.29596  
2002-08-21 07:38:11 51°16.152 2°54.269 21.807852 4.476859 31.299038  
2002-08-21 07:39:12 51°16.154 2°54.269 21.714463 4.474643 31.282735  
2002-08-21 07:40:12 51°16.155 2°54.274 21.973212 4.476331 31.294415  
2002-08-21 07:41:12 51°16.162 2°54.285 21.776328 4.476648 31.29739  
2002-08-21 07:42:12 51°16.241 2°54.263 21.867705 4.476437 31.297248  
2002-08-21 07:43:12 51°16.358 2°54.042 21.855486 4.476542 31.303597  
2002-08-21 07:44:11 51°16.483 2°53.787 21.915259 4.486038 31.413101  
2002-08-21 07:45:12 51°16.623 2°53.514 21.605565 4.488887 31.458654  
2002-08-21 07:46:11 51°16.76 2°53.254 21.600423 4.500386 31.568043  
2002-08-21 07:47:11 51°16.899 2°53.004 21.730576 4.515684 31.713045  
2002-08-21 07:48:11 51°17.038 2°52.746 21.771158 4.527395 31.826047  
2002-08-21 07:49:11 51°17.175 2°52.49 21.580679 4.5294 31.85825  
2002-08-21 07:50:11 51°17.317 2°52.228 21.604893 4.531194 31.899136  
2002-08-21 07:51:11 51°17.466 2°51.967 21.35401 4.529929 31.924254  
2002-08-21 07:52:12 51°17.629 2°51.736 21.559505 4.528241 31.941966  
2002-08-21 07:53:12 51°17.795 2°51.52 21.398656 4.525921 31.939699  
2002-08-21 07:54:11 51°17.958 2°51.316 21.502958 4.526553 31.940035  
2002-08-21 07:55:12 51°18.142 2°51.125 21.389332 4.523915 31.878415  
2002-08-21 07:56:11 51°18.307 2°51.035 21.557843 4.51558 31.784983  
2002-08-21 07:57:11 51°18.362 2°51 21.084229 4.512837 31.772641  
2002-08-21 07:58:11 51°18.402 2°50.987 21.248773 4.511255 31.794633  
2002-08-21 07:59:11 51°18.434 2°51.009 21.284227 4.510412 31.811677  
2002-08-21 08:00:12 51°18.445 2°51.015 21.386039 4.509885 31.825053  
2002-08-21 08:01:11 51°18.444 2°51.014 21.36318 4.509041 31.842666  
2002-08-21 08:02:12 51°18.442 2°51.014 21.579057 4.508936 31.856312  
2002-08-21 08:03:12 51°18.439 2°51.014 21.411231 4.508514 31.8566  
2002-08-21 08:04:12 51°18.431 2°51.014 21.376555 4.508831 31.863759  
2002-08-21 08:05:11 51°18.433 2°51.014 21.411985 4.508409 31.861459  
2002-08-21 08:06:11 51°18.44 2°51.007 21.506523 4.508514 31.861775  
2002-08-21 08:07:11 51°18.445 2°50.99 21.141628 4.508303 31.865285  
2002-08-21 08:08:12 51°18.442 2°50.972 21.525693 4.50862 31.87193  
2002-08-21 08:09:12 51°18.438 2°50.968 21.454057 4.508725 31.878463  
2002-08-21 08:10:11 51°18.434 2°50.97 21.252669 4.508831 31.883443  
2002-08-21 08:11:12 51°18.431 2°50.973 21.316565 4.508726 31.885719  
2002-08-21 08:12:12 51°18.429 2°50.975 21.052582 4.508937 31.888943  
2002-08-21 08:13:12 51°18.425 2°50.976 21.375721 4.509359 31.894355  
2002-08-21 08:14:12 51°18.421 2°50.977 21.248455 4.508198 31.885696  
2002-08-21 08:15:12 51°18.416 2°50.981 21.120881 4.508409 31.885291  
2002-08-21 08:16:12 51°18.414 2°50.984 21.187482 4.50862 31.883848  
2002-08-21 08:17:12 51°18.41 2°50.988 21.543314 4.508304 31.882383  
2002-08-21 08:18:11 51°18.406 2°50.994 21.344641 4.508093 31.882269  
2002-08-21 08:19:12 51°18.401 2°51 21.278624 4.508515 31.886125  
2002-08-21 08:20:11 51°18.396 2°51.008 21.21354 4.508198 31.886215  
2002-08-21 08:21:11 51°18.443 2°51.029 21.148277 4.508198 31.886215  
2002-08-21 08:22:12 51°18.556 2°51.216 21.231636 4.508937 31.891018  
2002-08-21 08:23:12 51°18.674 2°51.487 21.365323 4.50862 31.899928  
2002-08-21 08:24:12 51°18.793 2°51.758 21.438952 4.506405 31.878253  
2002-08-21 08:25:12 51°18.905 2°52.035 21.317439 4.505244 31.863892  
2002-08-21 08:26:12 51°18.972 2°52.358 21.091521 4.503345 31.845769  
2002-08-21 08:27:11 51°19.027 2°52.682 21.30882 4.501129 31.818423  
2002-08-21 08:28:12 51°19.089 2°53.013 21.592391 4.50018 31.797998  
2002-08-21 08:29:12 51°19.145 2°53.341 21.325263 4.497436 31.758274  
2002-08-21 08:30:11 51°19.208 2°53.66 21.229767 4.496698 31.734413  
2002-08-21 08:31:11 51°19.266 2°53.987 21.373816 4.494482 31.686609  
2002-08-21 08:32:12 51°19.33 2°54.321 21.502681 4.496696 31.670715  
2002-08-21 08:33:11 51°19.388 2°54.643 21.842437 4.499227 31.642523  
2002-08-21 08:34:11 51°19.446 2°54.972 21.458418 4.498066 31.599715  
2002-08-21 08:35:12 51°19.508 2°55.304 21.634832 4.500281 31.595707  
2002-08-21 08:36:12 51°19.568 2°55.63 21.533613 4.4968 31.562282  
2002-08-21 08:37:12 51°19.625 2°55.955 21.600502 4.495428 31.552539  
2002-08-21 08:38:12 51°19.682 2°56.28 21.741908 4.497749 31.564645  
2002-08-21 08:39:12 51°19.741 2°56.601 21.628623 4.498593 31.563638  
2002-08-21 08:40:12 51°19.799 2°56.927 21.507949 4.504606 31.599099  
2002-08-21 08:41:12 51°19.857 2°57.252 21.610312 4.50756 31.617173  
2002-08-21 08:42:12 51°19.915 2°57.576 21.198264 4.508298 31.619401  
2002-08-21 08:43:12 51°19.971 2°57.904 21.199219 4.504922 31.583276  
2002-08-21 08:44:12 51°20.027 2°58.235 21.204033 4.507243 31.600958  
2002-08-21 08:45:11 51°20.094 2°58.553 21.233624 4.508298 31.608719  
2002-08-21 08:46:12 51°20.172 2°58.879 21.18975 4.510619 31.629455  
2002-08-21 08:47:12 51°20.253 2°59.193 21.212029 4.512518 31.650962  
2002-08-21 08:48:12 51°20.326 2°59.509 21.186845 4.515156 31.678273  
2002-08-21 08:49:12 51°20.399 2°59.826 21.221694 4.514839 31.666105  
2002-08-21 08:50:12 51°20.475 3°0.145 21.189073 4.514628 31.666998  
2002-08-21 08:51:12 51°20.554 3°0.463 21.178369 4.514734 31.668335  
2002-08-21 08:52:11 51°20.633 3°0.777 21.166549 4.514945 31.679678  
2002-08-21 08:53:11 51°20.713 3°1.098 21.171046 4.513996 31.673759  
2002-08-21 08:54:11 51°20.791 3°1.42 21.160499 4.511569 31.653196  
2002-08-21 08:55:12 51°20.874 3°1.745 21.159543 4.514207 31.688681  
2002-08-21 08:56:11 51°20.955 3°2.058 21.108851 4.516528 31.731948  
2002-08-21 08:57:12 51°21.038 3°2.379 21.091282 4.517583 31.749963  
2002-08-21 08:58:12 51°21.112 3°2.698 21.113313 4.52212 31.797411  
2002-08-21 08:59:12 51°21.18 3°3.026 21.117495 4.526551 31.83739  
2002-08-21 09:00:12 51°21.25 3°3.354 21.075143 4.530138 31.862002  
2002-08-21 09:01:12 51°21.315 3°3.684 21.077375 4.532249 31.882714  
2002-08-21 09:02:12 51°21.386 3°4.009 21.109568 4.53362 31.892474  
2002-08-21 09:03:12 51°21.458 3°4.337 21.053698 4.535097 31.911821  
2002-08-21 09:04:12 51°21.53 3°4.667 21.090166 4.53668 31.930462  
2002-08-21 09:05:12 51°21.6 3°5.002 21.088533 4.537524 31.943297  
2002-08-21 09:06:12 51°21.672 3°5.339 21.054934 4.534886 31.92047  
2002-08-21 09:07:12 51°21.731 3°5.676 21.061591 4.536363 31.931065  
2002-08-21 09:08:12 51°21.799 3°6.007 21.071397 4.535625 31.918549  
2002-08-21 09:09:11 51°21.855 3°6.342 21.082277 4.534042 31.897853  
2002-08-21 09:10:11 51°21.904 3°6.685 21.121757 4.534991 31.897599  
2002-08-21 09:11:12 51°21.957 3°7.039 21.099011 4.534042 31.884985  
2002-08-21 09:12:12 51°22.007 3°7.388 21.113751 4.531404 31.854478  
2002-08-21 09:13:12 51°22.063 3°7.731 21.124465 4.528133 31.819533  
2002-08-21 09:14:12 51°22.116 3°8.077 21.133226 4.522331 31.767798  
2002-08-21 09:15:12 51°22.167 3°8.422 21.14326 4.513046 31.68621  
2002-08-21 09:16:12 51°22.214 3°8.772 21.152577 4.505028 31.61768  
2002-08-21 09:17:12 51°22.253 3°9.123 21.164957 4.502074 31.586873  
2002-08-21 09:18:11 51°22.281 3°9.473 21.173713 4.500492 31.565821  
2002-08-21 09:19:12 51°22.282 3°9.842 21.261454 4.499225 31.549801  
2002-08-21 09:20:11 51°22.317 3°10.198 21.205465 4.488464 31.449278  
2002-08-21 09:21:12 51°22.365 3°10.561 21.212904 4.486565 31.429353  
2002-08-21 09:22:11 51°22.42 3°10.914 21.216404 4.486882 31.425767  
2002-08-21 09:23:12 51°22.471 3°11.284 21.214892 4.493423 31.475454  
2002-08-21 09:24:12 51°22.526 3°11.642 21.207255 4.504289 31.564605  
2002-08-21 09:25:11 51°22.572 3°11.993 21.226784 4.501651 31.54141  
2002-08-21 09:26:12 51°22.583 3°12.366 21.247382 4.488464 31.42805  
2002-08-21 09:27:12 51°22.596 3°12.731 21.264197 4.478231 31.331874  
2002-08-21 09:28:12 51°22.61 3°13.021 21.265707 4.471479 31.268047  
2002-08-21 09:29:12 51°22.606 3°13.187 21.267496 4.466204 31.227337  
2002-08-21 09:30:12 51°22.595 3°13.209 21.267257 4.462195 31.19502  
2002-08-21 09:31:12 51°22.583 3°13.238 21.269722 4.46209 31.194196  
2002-08-21 09:32:11 51°22.571 3°13.262 21.29714 4.461668 31.181391  
2002-08-21 09:33:12 51°22.56 3°13.285 21.346904 4.462828 31.16945  
2002-08-21 09:34:12 51°22.549 3°13.309 21.310369 4.461878 31.16304  
2002-08-21 09:35:12 51°22.538 3°13.334 21.30302 4.461773 31.161718  
2002-08-21 09:36:12 51°22.528 3°13.359 21.301947 4.458925 31.154977  
2002-08-21 09:37:12 51°22.522 3°13.394 21.295631 4.460823 31.155808  
2002-08-21 09:38:12 51°22.526 3°13.432 21.272742 4.458608 31.154006  
2002-08-21 09:39:12 51°22.533 3°13.466 21.269841 4.45692 31.149824  
2002-08-21 09:40:12 51°22.533 3°13.497 21.28379 4.456499 31.147529  
2002-08-21 09:41:12 51°22.528 3°13.529 21.281565 4.458081 31.148389  
2002-08-21 09:42:12 51°22.523 3°13.564 21.292174 4.45692 31.144327  
2002-08-21 09:43:12 51°22.524 3°13.6 21.310051 4.457764 31.14442  
2002-08-21 09:44:12 51°22.522 3°13.634 21.293604 4.457553 31.14627  
2002-08-21 09:45:12 51°22.521 3°13.668 21.292253 4.457026 31.137657  
2002-08-21 09:46:12 51°22.534 3°13.694 21.27461 4.45692 31.135335  
2002-08-21 09:47:12 51°22.544 3°13.684 21.271391 4.455127 31.134822  
2002-08-21 09:48:12 51°22.528 3°13.684 21.27147 4.455549 31.136118  
2002-08-21 09:49:12 51°22.512 3°13.675 21.269404 4.455655 31.137941  
2002-08-21 09:50:11 51°22.504 3°13.653 21.269404 4.455865 31.139588  
2002-08-21 09:51:12 51°22.504 3°13.633 21.268569 4.456076 31.142235  
2002-08-21 09:52:12 51°22.514 3°13.612 21.268728 4.456393 31.146205  
2002-08-21 09:53:12 51°22.525 3°13.59 21.269841 4.457026 31.149648  
2002-08-21 09:54:12 51°22.539 3°13.568 21.270636 4.457975 31.157562  
2002-08-21 09:55:12 51°22.55 3°13.549 21.301113 4.458186 31.157709  
2002-08-21 09:56:12 51°22.563 3°13.53 21.303417 4.460085 31.174538  
2002-08-21 09:57:12 51°22.576 3°13.505 21.301947 4.460085 31.173037  
2002-08-21 09:58:12 51°22.59 3°13.47 21.266105 4.462406 31.193664  
2002-08-21 09:59:12 51°22.611 3°13.445 21.263044 4.466204 31.225833  
2002-08-21 10:00:12 51°22.643 3°13.468 21.255412 4.470951 31.263925  
2002-08-21 10:01:12 51°22.676 3°13.549 21.284982 4.477914 31.324369  
2002-08-21 10:02:12 51°22.717 3°13.636 21.251516 4.48129 31.353278  
2002-08-21 10:03:12 51°22.76 3°13.717 21.281366 4.484982 31.382149  
2002-08-21 10:04:12 51°22.803 3°13.794 21.244917 4.489835 31.421615  
2002-08-21 10:05:12 51°22.847 3°13.868 21.272067 4.493 31.449401  
2002-08-21 10:06:12 51°22.888 3°13.941 21.266025 4.496165 31.478208  
2002-08-21 10:07:12 51°22.927 3°14.016 21.226665 4.498486 31.499913  
2002-08-21 10:08:12 51°22.966 3°14.096 21.22237 4.502812 31.538837  
2002-08-21 10:09:12 51°23.011 3°14.172 21.220143 4.505344 31.560183  
2002-08-21 10:10:12 51°23.051 3°14.252 21.216643 4.508509 31.588522  
2002-08-21 10:11:12 51°23.093 3°14.335 21.243565 4.512201 31.620494  
2002-08-21 10:12:12 51°23.139 3°14.414 21.206539 4.51505 31.645354  
2002-08-21 10:13:12 51°23.187 3°14.49 21.198742 4.517054 31.665643  
2002-08-21 10:14:12 51°23.235 3°14.562 21.230483 4.518531 31.679767  
2002-08-21 10:15:11 51°23.281 3°14.637 21.196394 4.520641 31.698856  
2002-08-21 10:16:12 51°23.331 3°14.719 21.221614 4.523068 31.71839  
2002-08-21 10:17:12 51°23.388 3°14.804 21.203635 4.527921 31.763085  
2002-08-21 10:18:12 51°23.447 3°14.883 21.151741 4.532458 31.810956  
2002-08-21 10:19:12 51°23.503 3°14.974 21.129642 4.535518 31.848813  
2002-08-21 10:20:12 51°23.561 3°15.057 21.09694 4.538789 31.889392  
2002-08-21 10:21:12 51°23.634 3°15.145 21.047957 4.542588 31.950136  
2002-08-21 10:22:12 51°23.713 3°15.235 21.013582 4.548707 32.033946  
2002-08-21 10:23:12 51°23.805 3°15.327 21.015935 4.549552 32.062875  
2002-08-21 10:24:12 51°23.896 3°15.423 20.993954 4.551768 32.105265  
2002-08-21 10:25:12 51°23.993 3°15.518 21.012744 4.555461 32.140123  
2002-08-21 10:26:12 51°24.091 3°15.618 20.958874 4.563479 32.186215  
2002-08-21 10:27:12 51°24.189 3°15.72 20.90648 4.570865 32.277928  
2002-08-21 10:28:12 51°24.285 3°15.827 20.885184 4.575508 32.346584  
2002-08-21 10:29:12 51°24.383 3°15.941 20.880828 4.578568 32.383397  
2002-08-21 10:30:12 51°24.488 3°16.048 20.887462 4.581944 32.412222  
2002-08-21 10:31:12 51°24.591 3°16.155 20.894854 4.59239 32.487532  
2002-08-21 10:32:12 51°24.691 3°16.26 21.113671 4.607055 32.594672  
2002-08-21 10:33:11 51°24.787 3°16.369 21.311322 4.616759 32.473042  
2002-08-21 10:34:12 51°24.881 3°16.482 21.335707 4.612114 32.346409  
2002-08-21 10:35:11 51°24.978 3°16.583 21.4006 4.60631 32.263592  
2002-08-21 10:36:12 51°25.079 3°16.685 21.393538 4.602406 32.20874  
2002-08-21 10:37:11 51°25.199 3°16.789 21.422178 4.599346 32.165215  
2002-08-21 10:38:12 51°25.323 3°16.915 21.444304 4.6004 32.152382  
2002-08-21 10:39:12 51°25.422 3°17.035 21.453542 4.601455 32.145732  
2002-08-21 10:40:12 51°25.496 3°17.136 21.448269 4.599767 32.127405  
2002-08-21 10:41:11 51°25.555 3°17.224 21.470467 4.599345 32.125133  
2002-08-21 10:42:12 51°25.607 3°17.315 21.431933 4.599451 32.13109  
2002-08-21 10:43:12 51°25.664 3°17.401 21.43003 4.601983 32.15859  
2002-08-21 10:44:12 51°25.722 3°17.488 21.459884 4.603988 32.176322  
2002-08-21 10:45:12 51°25.779 3°17.569 21.421702 4.606204 32.19828  
2002-08-21 10:46:12 51°25.817 3°17.647 21.414682 4.607575 32.211069  
2002-08-21 10:47:12 51°25.836 3°17.73 21.410438 4.607048 32.212092  
2002-08-21 10:48:12 51°25.846 3°17.809 21.410081 4.607153 32.213433  
2002-08-21 10:49:12 51°25.854 3°17.882 21.409287 4.60652 32.210025  
2002-08-21 10:50:12 51°25.864 3°17.949 21.413214 4.607364 32.214053  
2002-08-21 10:51:12 51°25.885 3°17.998 21.440022 4.607259 32.213228  
2002-08-21 10:52:11 51°25.89 3°18.046 21.409168 4.608314 32.221483  
2002-08-21 10:53:12 51°25.896 3°18.075 21.415396 4.608525 32.218497  
2002-08-21 10:54:12 51°25.885 3°18.059 21.439824 4.607575 32.216219  
2002-08-21 10:55:12 51°25.872 3°18.021 21.406392 4.606098 32.206723  
2002-08-21 10:56:12 51°25.876 3°17.978 21.402861 4.605465 32.203315  
2002-08-21 10:57:12 51°25.893 3°17.98 21.400282 4.604199 32.193924  
2002-08-21 10:58:11 51°25.909 3°17.991 21.398497 4.602616 32.18463  
2002-08-21 10:59:11 51°25.926 3°17.984 21.394252 4.601983 32.183795  
2002-08-21 11:00:12 51°25.933 3°17.992 21.389173 4.600717 32.175433  
2002-08-21 11:01:12 51°25.937 3°18.01 21.387824 4.599768 32.172635  
2002-08-21 11:02:12 51°25.944 3°18.023 21.386039 4.599873 32.17346  
2002-08-21 11:03:12 51°25.949 3°18.022 21.383777 4.59924 32.17108  
2002-08-21 11:04:12 51°25.953 3°17.996 21.381912 4.59924 32.173139  
2002-08-21 11:05:12 51°25.963 3°17.967 21.374412 4.598502 32.169418  
2002-08-21 11:06:12 51°25.971 3°17.942 21.397902 4.598607 32.171789  
2002-08-21 11:07:12 51°25.977 3°17.916 21.359647 4.597763 32.173421  
2002-08-21 11:08:12 51°25.976 3°17.88 21.357305 4.597342 32.173723  
2002-08-21 11:09:12 51°25.975 3°17.85 21.357225 4.597658 32.175171  
2002-08-21 11:10:11 51°25.974 3°17.817 21.357583 4.59713 32.17104  
2002-08-21 11:11:12 51°25.971 3°17.763 21.356154 4.597764 32.177028  
2002-08-21 11:12:12 51°25.926 3°17.652 21.353613 4.597236 32.174442  
2002-08-21 11:13:12 51°25.848 3°17.528 21.358138 4.595548 32.159164  
2002-08-21 11:14:12 51°25.772 3°17.396 21.362346 4.596813 32.14643  
2002-08-21 11:15:12 51°25.697 3°17.265 21.363259 4.596919 32.162178  
2002-08-21 11:16:12 51°25.628 3°17.136 21.362624 4.598502 32.174568  
2002-08-21 11:17:12 51°25.563 3°17.004 21.388658 4.6023 32.209461  
2002-08-21 11:18:12 51°25.505 3°16.863 21.380999 4.606626 32.245921  
2002-08-21 11:19:12 51°25.448 3°16.72 21.349326 4.610108 32.276813  
2002-08-21 11:20:12 51°25.386 3°16.581 21.359409 4.610636 32.278878  
2002-08-21 11:21:12 51°25.322 3°16.441 21.302027 4.614645 32.314431  
2002-08-21 11:22:12 51°25.257 3°16.311 21.22587 4.623509 32.428056  
2002-08-21 11:23:12 51°25.192 3°16.182 21.154488 4.631952 32.562269  
2002-08-21 11:24:12 51°25.15 3°16.036 21.038468 4.63554 32.641974  
2002-08-21 11:25:12 51°25.125 3°15.889 21.02136 4.637758 32.728042  
2002-08-21 11:26:12 51°25.098 3°15.708 21.025707 4.637758 32.735978  
2002-08-21 11:27:12 51°25.069 3°15.51 21.066693 4.638496 32.742874  
2002-08-21 11:28:12 51°25.041 3°15.357 21.048237 4.638813 32.738495  
2002-08-21 11:29:12 51°25.003 3°15.103 21.117495 4.639129 32.728301  
2002-08-21 11:30:12 51°24.962 3°14.805 21.119048 4.639234 32.697971  
2002-08-21 11:31:12 51°24.92 3°14.503 21.119248 4.640078 32.685646  
2002-08-21 11:32:11 51°24.881 3°14.202 21.092637 4.641872 32.706648  
2002-08-21 11:33:12 51°24.84 3°13.896 20.919822 4.641873 32.760555  
2002-08-21 11:34:12 51°24.803 3°13.593 20.891817 4.59471 32.48166  
2002-08-21 11:35:12 51°24.767 3°13.281 20.88886 4.585531 32.425879  
2002-08-21 11:36:12 51°24.725 3°12.966 20.979349 4.589752 32.454537  
2002-08-21 11:37:12 51°24.683 3°12.656 21.025787 4.634593 32.739019  
2002-08-21 11:38:12 51°24.641 3°12.345 20.989445 4.63702 32.757152  
2002-08-21 11:39:12 51°24.595 3°12.034 21.019445 4.638075 32.764966  
2002-08-21 11:40:12 51°24.546 3°11.721 20.973562 4.637969 32.771026  
2002-08-21 11:41:12 51°24.499 3°11.411 20.961907 4.638814 32.786726  
2002-08-21 11:42:11 51°24.452 3°11.105 20.9449 4.639553 32.800007  
2002-08-21 11:43:12 51°24.404 3°10.797 20.925294 4.641452 32.832058  
2002-08-21 11:44:12 51°24.37 3°10.496 20.891578 4.636493 32.805546  
2002-08-21 11:45:12 51°24.361 3°10.197 20.873515 4.595555 32.510481  
2002-08-21 11:46:12 51°24.353 3°9.904 20.86708 4.592706 32.491092  
2002-08-21 11:47:12 51°24.352 3°9.606 20.873555 4.592073 32.484499  
2002-08-21 11:48:12 51°24.351 3°9.306 20.870157 4.588802 32.464404  
2002-08-21 11:49:12 51°24.349 3°9.006 20.898969 4.592917 32.494873  
2002-08-21 11:50:12 51°24.344 3°8.702 20.88954 4.598298 32.525338  
2002-08-21 11:51:11 51°24.325 3°8.396 20.854288 4.588591 32.465368  
2002-08-21 11:52:12 51°24.302 3°8.08 20.76516 4.566014 32.343919  
2002-08-21 11:53:12 51°24.278 3°7.765 20.712583 4.556413 32.304634  
2002-08-21 11:54:12 51°24.256 3°7.451 20.709378 4.550189 32.283669  
2002-08-21 11:55:12 51°24.242 3°7.134 20.726842 4.545125 32.237171  
2002-08-21 11:56:12 51°24.252 3°6.815 20.732289 4.545863 32.234622  
2002-08-21 11:57:12 51°24.258 3°6.495 20.72496 4.546918 32.240889  
2002-08-21 11:58:12 51°24.275 3°6.172 20.712503 4.547868 32.251574  
2002-08-21 11:59:12 51°24.291 3°5.848 20.702447 4.550717 32.286802  
2002-08-21 12:00:12 51°24.341 3°5.537 20.682653 4.55346 32.31648  
2002-08-21 12:01:12 51°24.51 3°5.353 20.674838 4.559369 32.376598  
2002-08-21 12:02:12 51°24.704 3°5.225 20.680849 4.563167 32.411536  
2002-08-21 12:03:12 51°24.883 3°5.048 20.689666 4.562639 32.404699  
2002-08-21 12:04:12 51°25.087 3°4.914 20.724719 4.561584 32.3905  
2002-08-21 12:05:13 51°25.296 3°4.789 20.691509 4.562217 32.394472  
2002-08-21 12:06:12 51°25.495 3°4.67 20.694314 4.560846 32.38252  
2002-08-21 12:07:12 51°25.699 3°4.545 20.694995 4.559685 32.37066  
2002-08-21 12:08:12 51°25.899 3°4.427 20.722717 4.559052 32.367744  
2002-08-21 12:09:13 51°26.106 3°4.301 20.696918 4.558208 32.363681  
2002-08-21 12:10:12 51°26.309 3°4.175 20.777728 4.562006 32.373252  
2002-08-21 12:11:12 51°26.511 3°4.048 20.894415 4.576142 32.416294  
2002-08-21 12:12:17 51°26.734 3°3.925 20.917146 4.598614 32.516237  
2002-08-21 12:13:17 51°26.951 3°3.837 20.841653 4.608744 32.613332  
2002-08-21 12:14:17 51°27.166 3°3.766 20.760597 4.610116 32.676177  
2002-08-21 12:15:17 51°27.384 3°3.687 20.656599 4.602837 32.689672  
2002-08-21 12:16:17 51°27.606 3°3.618 20.569108 4.596086 32.716032  
2002-08-21 12:17:17 51°27.825 3°3.566 20.452044 4.59039 32.749389  
2002-08-21 12:18:17 51°28.053 3°3.576 20.419469 4.585854 32.769068  
2002-08-21 12:19:17 51°28.215 3°3.609 20.432943 4.583956 32.773811  
2002-08-21 12:20:17 51°28.291 3°3.59 20.390702 4.583428 32.78253  
2002-08-21 12:21:17 51°28.321 3°3.595 20.386195 4.582479 32.780862  
2002-08-21 12:22:17 51°28.331 3°3.61 20.384384 4.583745 32.794238  
2002-08-21 12:23:17 51°28.329 3°3.62 20.381929 4.582901 32.789638  
2002-08-21 12:24:17 51°28.322 3°3.608 20.381808 4.582901 32.791258  
2002-08-21 12:25:17 51°28.317 3°3.593 20.381567 4.582585 32.789263  
2002-08-21 12:26:17 51°28.312 3°3.586 20.38048 4.581846 32.784428  
2002-08-21 12:27:17 51°28.308 3°3.59 20.378991 4.582163 32.788042  
2002-08-21 12:28:17 51°28.303 3°3.603 20.378387 4.582057 32.788817  
2002-08-21 12:29:17 51°28.299 3°3.624 20.412228 4.58153 32.784052  
2002-08-21 12:30:17 51°28.298 3°3.647 20.384585 4.582057 32.787197  
2002-08-21 12:31:17 51°28.298 3°3.676 20.391467 4.582585 32.786024  
2002-08-21 12:32:17 51°28.299 3°3.708 20.397261 4.582584 32.782786  
2002-08-21 12:33:17 51°28.3 3°3.741 20.401526 4.583323 32.783843  
2002-08-21 12:34:17 51°28.3 3°3.773 20.47134 4.583745 32.784525  
2002-08-21 12:35:17 51°28.302 3°3.806 20.413153 4.584272 32.784432  
2002-08-21 12:36:17 51°28.301 3°3.842 20.418705 4.583745 32.774278  
2002-08-21 12:37:17 51°28.302 3°3.876 20.454376 4.584483 32.778571  
2002-08-21 12:38:17 51°28.3 3°3.901 20.421762 4.583534 32.768817  
2002-08-21 12:39:17 51°28.288 3°3.897 20.426629 4.584272 32.773109  
2002-08-21 12:40:17 51°28.277 3°3.867 20.43612 4.584272 32.768798  
2002-08-21 12:41:17 51°28.263 3°3.813 20.441831 4.584588 32.765405  
2002-08-21 12:42:17 51°28.247 3°3.742 20.51755 4.584905 32.762551  
2002-08-21 12:43:17 51°28.228 3°3.662 20.462376 4.585116 32.756701  
2002-08-21 12:44:17 51°28.211 3°3.574 20.476043 4.585327 32.748703  
2002-08-21 12:45:17 51°28.185 3°3.461 20.481469 4.585854 32.745391  
2002-08-21 12:46:17 51°28.158 3°3.337 20.487617 4.585537 32.737485  
2002-08-21 12:47:17 51°28.131 3°3.213 20.493525 4.585221 32.731195  
2002-08-21 12:48:17 51°28.105 3°3.078 20.489667 4.584588 32.722377  
2002-08-21 12:49:17 51°28.073 3°2.919 20.482031 4.583216 32.715716  
2002-08-21 12:50:17 51°28.04 3°2.753 20.491515 4.58195 32.704528  
2002-08-21 12:51:17 51°28.01 3°2.584 20.505297 4.579523 32.677099  
2002-08-21 12:52:17 51°27.979 3°2.413 20.49248 4.579629 32.674725  
2002-08-21 12:53:17 51°27.948 3°2.24 20.49907 4.577835 32.669516  
2002-08-21 12:54:17 51°27.918 3°2.063 20.484041 4.577519 32.663235  
2002-08-21 12:55:17 51°27.885 3°1.871 20.433104 4.577519 32.686839  
2002-08-21 12:56:17 51°27.852 3°1.677 20.42136 4.577625 32.715627  
2002-08-21 12:57:17 51°27.82 3°1.479 20.398187 4.577836 32.724309  
2002-08-21 12:58:17 51°27.787 3°1.279 20.364098 4.576993 32.739635  
2002-08-21 12:59:17 51°27.753 3°1.077 20.316901 4.581002 32.803594  
2002-08-21 13:00:17 51°27.713 3°0.842 20.283055 4.584696 32.862441  
2002-08-21 13:01:17 51°27.657 3°0.534 20.237659 4.587756 32.914689  
2002-08-21 13:02:17 51°27.597 3°0.213 20.206962 4.591555 32.978969  
2002-08-21 13:03:17 51°27.539 2°59.887 20.203089 4.590711 32.990186  
2002-08-21 13:04:17 51°27.481 2°59.56 20.203008 4.589762 32.985823  
2002-08-21 13:05:17 51°27.429 2°59.227 20.19175 4.589551 32.981941  
2002-08-21 13:06:17 51°27.38 2°58.893 20.204743 4.589551 32.993954  
2002-08-21 13:07:17 51°27.331 2°58.564 20.250725 4.589868 32.999779  
2002-08-21 13:08:17 51°27.281 2°58.237 20.227012 4.588074 32.980975  
2002-08-21 13:09:17 51°27.235 2°57.908 20.190015 4.586491 32.963329  
2002-08-21 13:10:17 51°27.186 2°57.579 20.134342 4.588496 33.002402  
2002-08-21 13:11:17 51°27.142 2°57.253 20.118831 4.587864 33.02521  
2002-08-21 13:12:17 51°27.094 2°56.924 20.106469 4.587125 33.028022  
2002-08-21 13:13:17 51°27.046 2°56.6 20.094104 4.587442 33.039891  
2002-08-21 13:14:17 51°27 2°56.273 20.089699 4.587337 33.050009  
2002-08-21 13:15:17 51°26.955 2°55.943 20.100489 4.587653 33.052014  
2002-08-21 13:16:17 51°26.907 2°55.616 20.106307 4.587653 33.045431  
2002-08-21 13:17:17 51°26.86 2°55.288 20.113135 4.587759 33.042991  
2002-08-21 13:18:17 51°26.812 2°54.964 20.117862 4.587336 33.033558  
2002-08-21 13:19:17 51°26.766 2°54.638 20.123032 4.587336 33.03027  
2002-08-21 13:20:17 51°26.723 2°54.312 20.129616 4.586809 33.022184  
2002-08-21 13:21:17 51°26.68 2°53.984 20.127112 4.589974 33.042762  
2002-08-21 13:22:17 51°26.634 2°53.652 20.121659 4.595144 33.094311  
2002-08-21 13:23:17 51°26.585 2°53.324 20.06577 4.600104 33.162912  
2002-08-21 13:24:17 51°26.538 2°52.996 20.05263 4.603691 33.206761  
2002-08-21 13:25:17 51°26.492 2°52.674 20.078463 4.606329 33.238008  
2002-08-21 13:26:17 51°26.448 2°52.344 20.043451 4.609178 33.27043  
2002-08-21 13:27:17 51°26.401 2°52.016 19.989402 4.611606 33.316089  
2002-08-21 13:28:17 51°26.35 2°51.69 19.989078 4.612978 33.339951  
2002-08-21 13:29:17 51°26.306 2°51.364 20.078706 4.612661 33.319079  
2002-08-21 13:30:17 51°26.259 2°51.047 20.018414 4.613504 33.300968  
2002-08-21 13:31:17 51°26.215 2°50.727 20.0352 4.617092 33.355483  
2002-08-21 13:32:17 51°26.169 2°50.408 20.010646 4.618253 33.365984  
2002-08-21 13:33:17 51°26.124 2°50.089 19.996686 4.620363 33.389172  
2002-08-21 13:34:17 51°26.08 2°49.769 19.980052 4.620996 33.399857  
2002-08-21 13:35:17 51°26.041 2°49.454 20.018859 4.624268 33.443601  
2002-08-21 13:36:17 51°26.025 2°49.159 20.100933 4.620047 33.383276  
2002-08-21 13:37:17 51°26.013 2°48.872 20.064719 4.617725 33.328989  
2002-08-21 13:38:17 51°25.994 2°48.683 20.051336 4.619307 33.332916  
2002-08-21 13:39:17 51°25.99 2°48.582 20.145771 4.619835 33.346047  
2002-08-21 13:40:17 51°25.993 2°48.53 20.083475 4.620785 33.357605  
2002-08-21 13:41:17 51°25.989 2°48.511 20.051538 4.620785 33.355386  
2002-08-21 13:42:17 51°25.984 2°48.507 20.050972 4.621418 33.357731  
2002-08-21 13:43:17 51°25.982 2°48.508 20.050123 4.622262 33.366219  
2002-08-21 13:44:17 51°25.983 2°48.513 20.050042 4.621312 33.357433  
2002-08-21 13:45:17 51°25.986 2°48.519 20.04802 4.622262 33.365664  
2002-08-21 13:46:16 51°25.988 2°48.529 20.045796 4.622578 33.372107  
2002-08-21 13:47:17 51°25.991 2°48.537 20.079595 4.622578 33.371552  
2002-08-21 13:48:17 51°25.994 2°48.547 20.081494 4.622684 33.37185  
2002-08-21 13:49:17 51°25.996 2°48.559 20.098428 4.623211 33.378891  
2002-08-21 13:50:17 51°25.997 2°48.569 20.079069 4.623634 33.388966  
2002-08-21 13:51:17 51°25.997 2°48.575 20.046403 4.623633 33.380638  
2002-08-21 13:52:17 51°25.997 2°48.582 20.050729 4.624161 33.384904  
2002-08-21 13:53:17 51°25.996 2°48.591 20.041914 4.623739 33.378716  
2002-08-21 13:54:17 51°25.995 2°48.595 20.03884 4.624689 33.39139  
2002-08-21 13:55:17 51°25.994 2°48.599 20.08105 4.625427 33.395142  
2002-08-21 13:56:17 51°25.992 2°48.605 20.052549 4.6249 33.387545  
2002-08-21 13:57:17 51°25.991 2°48.612 20.054692 4.625322 33.387072  
2002-08-21 13:58:17 51°25.99 2°48.619 20.046281 4.625322 33.384852  
2002-08-21 13:59:17 51°25.989 2°48.627 20.037425 4.626271 33.39808  
2002-08-21 14:00:17 51°25.988 2°48.634 20.046281 4.626166 33.401669  
2002-08-21 14:01:17 51°25.987 2°48.642 20.026706 4.626271 33.400856  
2002-08-21 14:02:17 51°25.985 2°48.653 20.024886 4.62891 33.442763  
2002-08-21 14:03:17 51°25.983 2°48.662 20.027273 4.627221 33.423541  
2002-08-21 14:04:17 51°25.977 2°48.665 20.032167 4.627643 33.425287  
2002-08-21 14:05:17 51°25.954 2°48.66 20.020032 4.628487 33.432116  
2002-08-21 14:06:17 51°25.894 2°48.684 20.049678 4.629015 33.445843  
2002-08-21 14:07:17 51°25.819 2°48.731 20.009796 4.629437 33.452042  
2002-08-21 14:08:17 51°25.741 2°48.795 20.001016 4.630598 33.467005  
2002-08-21 14:09:17 51°25.659 2°48.858 20.012305 4.645051 33.432189  
2002-08-21 14:10:17 51°25.575 2°48.907 20.008866 4.631442 33.458801  
2002-08-21 14:11:17 51°25.491 2°48.943 19.994015 4.630703 33.461176  
2002-08-21 14:12:17 51°25.406 2°48.974 19.985071 4.63408 33.509698  
2002-08-21 14:13:17 51°25.322 2°49.004 19.958677 4.635663 33.532013  
2002-08-21 14:14:17 51°25.238 2°49.033 19.938551 4.637774 33.570368  
2002-08-21 14:15:17 51°25.149 2°49.059 19.962969 4.637035 33.572777  
2002-08-21 14:16:17 51°25.048 2°49.082 19.935838 4.634714 33.560109  
2002-08-21 14:17:17 51°24.944 2°49.102 19.990292 4.632287 33.530916  
2002-08-21 14:18:18 51°24.837 2°49.12 20.010767 4.630177 33.495374  
2002-08-21 14:19:18 51°24.73 2°49.138 19.988268 4.629227 33.475964  
2002-08-21 14:20:18 51°24.624 2°49.154 20.026342 4.628805 33.465299  
2002-08-21 14:21:18 51°24.518 2°49.175 19.996443 4.629227 33.465372  
2002-08-21 14:22:18 51°24.415 2°49.192 20.000449 4.628382 33.457981  
2002-08-21 14:23:18 51°24.312 2°49.211 20.031358 4.625744 33.427719  
2002-08-21 14:24:18 51°24.209 2°49.225 20.039366 4.621312 33.367418  
2002-08-21 14:25:18 51°24.104 2°49.241 20.032733 4.62089 33.36456  
2002-08-21 14:26:18 51°23.996 2°49.257 20.017483 4.624056 33.397934  
2002-08-21 14:27:18 51°23.889 2°49.281 20.077533 4.623739 33.402042  
2002-08-21 14:28:18 51°23.783 2°49.312 20.007247 4.624584 33.412763  
2002-08-21 14:29:18 51°23.691 2°49.338 20.00834 4.625639 33.424639  
2002-08-21 14:30:18 51°23.615 2°49.363 20.003646 4.626799 33.435702  
2002-08-21 14:31:18 51°23.535 2°49.39 20.006519 4.627538 33.44168  
2002-08-21 14:32:18 51°23.442 2°49.419 20.008947 4.629015 33.45141  
2002-08-21 14:33:18 51°23.336 2°49.444 20.014651 4.629332 33.453415  
2002-08-21 14:34:18 51°23.225 2°49.474 20.050204 4.630914 33.460099  
2002-08-21 14:35:18 51°23.109 2°49.505 20.020558 4.630598 33.458094  
2002-08-21 14:36:18 51°22.989 2°49.528 20.021245 4.631125 33.457353  
2002-08-21 14:37:18 51°22.855 2°49.391 20.030751 4.630176 33.448  
2002-08-21 14:38:18 51°22.674 2°49.199 20.049476 4.634291 33.470161  
2002-08-21 14:39:18 51°22.482 2°49.035 20.0686 4.634818 33.46163  
2002-08-21 14:40:18 51°22.264 2°49.056 20.092649 4.632602 33.426489  
2002-08-21 14:41:18 51°22.065 2°49.223 20.16289 4.627326 33.362245  
2002-08-21 14:42:18 51°21.857 2°49.371 20.150334 4.622472 33.303159  
2002-08-21 14:43:18 51°21.642 2°49.503 20.170318 4.616035 33.231947  
2002-08-21 14:44:18 51°21.427 2°49.629 20.28769 4.611075 33.162297  
2002-08-21 14:45:18 51°21.213 2°49.747 20.31102 4.59588 32.96089  
2002-08-21 14:46:18 51°20.995 2°49.859 20.330637 4.589866 32.899038  
2002-08-21 14:47:18 51°20.777 2°49.98 20.341671 4.588177 32.870313  
2002-08-21 14:48:18 51°20.56 2°50.102 20.398227 4.584168 32.828423  
2002-08-21 14:49:18 51°20.348 2°50.218 20.392433 4.578786 32.766939  
2002-08-21 14:50:18 51°20.138 2°50.33 20.412027 4.572878 32.700776  
2002-08-21 14:51:18 51°19.921 2°50.441 20.4251 4.570662 32.668531  
2002-08-21 14:52:18 51°19.708 2°50.548 20.474154 4.565175 32.606422  
2002-08-21 14:53:18 51°19.5 2°50.662 20.544378 4.555362 32.487445  
2002-08-21 14:54:18 51°19.289 2°50.803 20.637554 4.547343 32.365072  
2002-08-21 14:55:18 51°19.08 2°50.955 20.618744 4.545126 32.318334  
2002-08-21 14:56:18 51°18.87 2°51.1 20.585523 4.550402 32.357652  
2002-08-21 14:57:18 51°18.661 2°51.248 20.535704 4.562957 32.473484  
2002-08-21 14:58:18 51°18.452 2°51.39 20.502244 4.580894 32.662864  
2002-08-21 14:59:18 51°18.24 2°51.531 20.479499 4.587014 32.735853  
2002-08-21 15:00:18 51°18.032 2°51.672 20.479339 4.604107 32.888075  
2002-08-21 15:01:18 51°17.823 2°51.808 20.586767 4.589124 32.739816  
2002-08-21 15:02:18 51°17.618 2°51.95 20.655476 4.570342 32.524318  
2002-08-21 15:03:18 51°17.408 2°52.093 20.658523 4.561584 32.407424  
2002-08-21 15:04:18 51°17.197 2°52.241 20.598404 4.580154 32.57103  
2002-08-21 15:05:18 51°16.998 2°52.42 20.586607 4.596509 32.74242  
2002-08-21 15:06:17 51°16.782 2°52.535 20.735813 4.600413 32.773548  
2002-08-21 15:07:32 51°16.534 2°52.6 21.231318 4.595554 32.480964  
2002-08-21 15:08:48 51°16.401 2°52.61 21.306675 0.068925 0.365032  
2002-08-21 15:09:48 51°16.303 2°52.597 33.091015 0.063311 0.334528  
2002-08-21 15:10:48 51°16.164 2°52.593 35.183028 0.066534 0.352069  
2002-08-21 15:11:48 51°15.986 2°52.665 33.098708 0.067366 0.35659  
2002-08-21 15:12:48 51°15.799 2°52.861 31.993575 0.06435 0.340091  
2002-08-21 15:13:48 51°15.619 2°53.081 30.675932 0.060399 0.318532  
2002-08-21 15:14:48 51°15.461 2°53.195 32.779544 0.058736 0.30946  
2002-08-21 15:15:48 51°15.324 2°53.273 32.101714 0.056864 0.299265  
2002-08-21 15:16:48 51°15.189 2°53.335 33.091083 0.056137 0.295219  
2002-08-21 15:17:48 51°15.058 2°53.406 33.269955 0.055929 0.294012  
2002-08-21 15:18:48 51°14.94 2°53.467 33.011772 0.054993 0.288812  
2002-08-21 15:19:48 51°14.853 2°53.508 32.947151 0.054057 0.283704  
2002-08-21 15:20:48 51°14.784 2°53.553 32.233419 0.053433 0.28027  
2002-08-21 15:21:46 51°14.737 2°53.618 32.757865 0.052706 0.276253  
2002-08-21 15:22:47 51°14.691 2°53.693 31.57826 0.052186 0.273349  
2002-08-21 15:23:48 51°14.637 2°53.782 31.816542 0.05125 0.268239  
2002-08-21 15:24:48 51°14.589 2°53.918 31.255634 0.05073 0.265365  
2002-08-21 15:25:48 51°14.556 2°54.092 31.934563 0.050418 0.263617  
2002-08-21 15:26:48 51°14.523 2°54.267 31.319367 0.049483 0.258452  
2002-08-21 15:27:48 51°14.494 2°54.384 31.580921 0.049067 0.256145  
2002-08-21 15:28:48 51°14.472 2°54.519 32.767293 0.048131 0.251115  
2002-08-21 15:29:48 51°14.429 2°54.736 34.034478 0.048027 0.250426  
2002-08-21 15:30:48 51°14.365 2°54.999 33.474186 0.046884 0.24429  
2002-08-21 15:31:48 51°14.283 2°55.219 33.524047 0.046052 0.239752  
2002-08-21 15:32:48 51°14.204 2°55.352 32.999592 0.045428 0.23647  
2002-08-21 15:33:46 51°14.135 2°55.426 31.398845 0.045013 0.234203  
2002-08-21 15:34:48 51°14.057 2°55.476 33.438059 0.044493 0.231382  
2002-08-21 15:35:46 51°13.981 2°55.527 34.321096 0.044077 0.229113  
2002-08-21 15:36:47 51°13.891 2°55.591 32.952074 0.043661 0.226844  
2002-08-21 15:37:47 51°13.809 2°55.65 32.981437 0.043141 0.224029  
2002-08-21 15:38:48 51°13.753 2°55.716 33.579805 0.042726 0.221763  
2002-08-21 15:39:48 51°13.713 2°55.774 32.791725 0.042206 0.218952  
2002-08-21 15:40:48 51°13.685 2°55.839 33.756616 0.04179 0.216694  
2002-08-21 15:41:48 51°13.673 2°55.912 32.419651 0.04127 0.213896  
2002-08-21 15:42:46 51°13.667 2°55.948 31.363986 0.040855 0.211651